sensor_id;sensor_type;location;lat;lon;timestamp;temperature;humidity
42095;DHT22;27753;55.724;37.612;2024-02-21T00:00:56;-7.20;99.40
42095;DHT22;27753;55.724;37.612;2024-02-21T00:03:22;-7.20;99.40
42095;DHT22;27753;55.724;37.612;2024-02-21T00:05:48;-7.20;99.40
42095;DHT22;27753;55.724;37.612;2024-02-21T00:08:14;-7.20;99.40
42095;DHT22;27753;55.724;37.612;2024-02-21T00:10:39;-7.20;99.70
42095;DHT22;27753;55.724;37.612;2024-02-21T00:13:05;-7.20;99.50
42095;DHT22;27753;55.724;37.612;2024-02-21T00:15:31;-7.20;99.40
42095;DHT22;27753;55.724;37.612;2024-02-21T00:17:57;-7.20;99.40
42095;DHT22;27753;55.724;37.612;2024-02-21T00:20:23;-7.20;99.40
42095;DHT22;27753;55.724;37.612;2024-02-21T00:22:51;-7.10;99.40
42095;DHT22;27753;55.724;37.612;2024-02-21T00:25:16;-7.10;99.40
42095;DHT22;27753;55.724;37.612;2024-02-21T00:27:43;-7.10;99.30
42095;DHT22;27753;55.724;37.612;2024-02-21T00:30:10;-7.10;99.40
42095;DHT22;27753;55.724;37.612;2024-02-21T00:32:36;-7.10;99.30
42095;DHT22;27753;55.724;37.612;2024-02-21T00:35:02;-7.10;99.40
42095;DHT22;27753;55.724;37.612;2024-02-21T00:37:28;-7.10;99.40
42095;DHT22;27753;55.724;37.612;2024-02-21T00:39:56;-7.00;99.50
42095;DHT22;27753;55.724;37.612;2024-02-21T00:42:22;-6.90;99.50
42095;DHT22;27753;55.724;37.612;2024-02-21T00:44:48;-6.90;99.50
42095;DHT22;27753;55.724;37.612;2024-02-21T00:47:14;-6.80;99.50
42095;DHT22;27753;55.724;37.612;2024-02-21T00:49:39;-6.70;99.40
42095;DHT22;27753;55.724;37.612;2024-02-21T00:52:06;-6.60;99.40
42095;DHT22;27753;55.724;37.612;2024-02-21T00:54:32;-6.50;99.30
42095;DHT22;27753;55.724;37.612;2024-02-21T00:56:58;-6.50;99.20
42095;DHT22;27753;55.724;37.612;2024-02-21T00:59:23;-6.50;99.20
42095;DHT22;27753;55.724;37.612;2024-02-21T01:01:49;-6.40;99.10
42095;DHT22;27753;55.724;37.612;2024-02-21T01:04:15;-6.40;99.00
42095;DHT22;27753;55.724;37.612;2024-02-21T01:06:41;-6.40;99.00
42095;DHT22;27753;55.724;37.612;2024-02-21T01:09:10;-6.40;98.90
42095;DHT22;27753;55.724;37.612;2024-02-21T01:11:36;-6.40;98.80
42095;DHT22;27753;55.724;37.612;2024-02-21T01:14:02;-6.40;98.70
42095;DHT22;27753;55.724;37.612;2024-02-21T01:16:28;-6.40;98.70
42095;DHT22;27753;55.724;37.612;2024-02-21T01:18:54;-6.40;98.80
42095;DHT22;27753;55.724;37.612;2024-02-21T01:21:20;-6.40;98.80
42095;DHT22;27753;55.724;37.612;2024-02-21T01:23:46;-6.30;98.80
42095;DHT22;27753;55.724;37.612;2024-02-21T01:26:11;-6.30;98.60
42095;DHT22;27753;55.724;37.612;2024-02-21T01:28:40;-6.30;98.50
42095;DHT22;27753;55.724;37.612;2024-02-21T01:31:06;-6.20;98.60
42095;DHT22;27753;55.724;37.612;2024-02-21T01:33:32;-6.20;98.50
42095;DHT22;27753;55.724;37.612;2024-02-21T01:36:01;-6.20;98.50
42095;DHT22;27753;55.724;37.612;2024-02-21T01:38:27;-6.10;98.40
42095;DHT22;27753;55.724;37.612;2024-02-21T01:40:54;-6.20;98.20
42095;DHT22;27753;55.724;37.612;2024-02-21T01:43:20;-6.20;98.20
42095;DHT22;27753;55.724;37.612;2024-02-21T01:45:49;-6.20;98.40
42095;DHT22;27753;55.724;37.612;2024-02-21T01:48:19;-6.20;98.30
42095;DHT22;27753;55.724;37.612;2024-02-21T01:50:53;-6.20;98.40
42095;DHT22;27753;55.724;37.612;2024-02-21T01:53:32;-6.20;98.50
42095;DHT22;27753;55.724;37.612;2024-02-21T01:55:58;-6.20;98.30
42095;DHT22;27753;55.724;37.612;2024-02-21T01:58:24;-6.20;98.40
42095;DHT22;27753;55.724;37.612;2024-02-21T02:00:50;-6.20;98.50
42095;DHT22;27753;55.724;37.612;2024-02-21T02:03:16;-6.10;98.50
42095;DHT22;27753;55.724;37.612;2024-02-21T02:05:49;-6.10;98.60
42095;DHT22;27753;55.724;37.612;2024-02-21T02:08:17;-6.00;98.60
42095;DHT22;27753;55.724;37.612;2024-02-21T02:10:43;-5.90;98.50
42095;DHT22;27753;55.724;37.612;2024-02-21T02:13:10;-5.80;98.50
42095;DHT22;27753;55.724;37.612;2024-02-21T02:15:40;-5.80;98.40
42095;DHT22;27753;55.724;37.612;2024-02-21T02:18:06;-5.80;98.30
42095;DHT22;27753;55.724;37.612;2024-02-21T02:20:32;-5.80;98.20
42095;DHT22;27753;55.724;37.612;2024-02-21T02:23:10;-5.80;98.30
42095;DHT22;27753;55.724;37.612;2024-02-21T02:25:40;-5.80;98.40
42095;DHT22;27753;55.724;37.612;2024-02-21T02:28:06;-5.80;98.30
42095;DHT22;27753;55.724;37.612;2024-02-21T02:30:33;-5.80;98.30
42095;DHT22;27753;55.724;37.612;2024-02-21T02:33:00;-5.70;98.40
42095;DHT22;27753;55.724;37.612;2024-02-21T02:35:26;-5.70;98.40
42095;DHT22;27753;55.724;37.612;2024-02-21T02:37:52;-5.70;98.30
42095;DHT22;27753;55.724;37.612;2024-02-21T02:40:18;-5.70;98.30
42095;DHT22;27753;55.724;37.612;2024-02-21T02:42:44;-5.70;98.40
42095;DHT22;27753;55.724;37.612;2024-02-21T02:45:10;-5.60;98.30
42095;DHT22;27753;55.724;37.612;2024-02-21T02:47:36;-5.60;98.20
42095;DHT22;27753;55.724;37.612;2024-02-21T02:50:02;-5.70;98.30
42095;DHT22;27753;55.724;37.612;2024-02-21T02:52:28;-5.70;98.30
42095;DHT22;27753;55.724;37.612;2024-02-21T02:54:54;-5.70;98.40
42095;DHT22;27753;55.724;37.612;2024-02-21T02:57:21;-5.60;98.40
42095;DHT22;27753;55.724;37.612;2024-02-21T02:59:48;-5.60;98.30
42095;DHT22;27753;55.724;37.612;2024-02-21T03:02:14;-5.70;98.30
42095;DHT22;27753;55.724;37.612;2024-02-21T03:04:40;-5.60;98.30
42095;DHT22;27753;55.724;37.612;2024-02-21T03:07:06;-5.70;98.20
42095;DHT22;27753;55.724;37.612;2024-02-21T03:09:32;-5.70;98.20
42095;DHT22;27753;55.724;37.612;2024-02-21T03:11:58;-5.80;98.30
42095;DHT22;27753;55.724;37.612;2024-02-21T03:14:30;-5.80;98.40
42095;DHT22;27753;55.724;37.612;2024-02-21T03:16:59;-5.80;98.50
42095;DHT22;27753;55.724;37.612;2024-02-21T03:19:25;-5.80;98.50
42095;DHT22;27753;55.724;37.612;2024-02-21T03:21:52;-5.80;98.60
42095;DHT22;27753;55.724;37.612;2024-02-21T03:24:19;-5.70;98.60
42095;DHT22;27753;55.724;37.612;2024-02-21T03:26:45;-5.80;98.80
42095;DHT22;27753;55.724;37.612;2024-02-21T03:29:14;-5.70;98.60
42095;DHT22;27753;55.724;37.612;2024-02-21T03:31:39;-5.70;98.70
42095;DHT22;27753;55.724;37.612;2024-02-21T03:34:05;-5.60;98.80
42095;DHT22;27753;55.724;37.612;2024-02-21T03:36:31;-5.50;98.80
42095;DHT22;27753;55.724;37.612;2024-02-21T03:38:57;-5.60;98.60
42095;DHT22;27753;55.724;37.612;2024-02-21T03:41:23;-5.60;98.50
42095;DHT22;27753;55.724;37.612;2024-02-21T03:43:48;-5.60;98.50
42095;DHT22;27753;55.724;37.612;2024-02-21T03:46:15;-5.70;98.60
42095;DHT22;27753;55.724;37.612;2024-02-21T03:48:41;-5.60;98.80
42095;DHT22;27753;55.724;37.612;2024-02-21T03:51:07;-5.50;98.90
42095;DHT22;27753;55.724;37.612;2024-02-21T03:53:33;-5.50;98.60
42095;DHT22;27753;55.724;37.612;2024-02-21T03:56:01;-5.50;98.60
42095;DHT22;27753;55.724;37.612;2024-02-21T03:58:32;-5.50;98.70
42095;DHT22;27753;55.724;37.612;2024-02-21T04:01:00;-5.50;98.80
42095;DHT22;27753;55.724;37.612;2024-02-21T04:03:30;-5.50;98.70
42095;DHT22;27753;55.724;37.612;2024-02-21T04:05:56;-5.50;98.70
42095;DHT22;27753;55.724;37.612;2024-02-21T04:08:23;-5.50;98.70
42095;DHT22;27753;55.724;37.612;2024-02-21T04:10:49;-5.50;98.70
42095;DHT22;27753;55.724;37.612;2024-02-21T04:13:16;-5.50;98.70
42095;DHT22;27753;55.724;37.612;2024-02-21T04:15:42;-5.50;98.70
42095;DHT22;27753;55.724;37.612;2024-02-21T04:18:07;-5.40;99.00
42095;DHT22;27753;55.724;37.612;2024-02-21T04:20:34;-5.50;98.70
42095;DHT22;27753;55.724;37.612;2024-02-21T04:23:01;-5.50;98.80
42095;DHT22;27753;55.724;37.612;2024-02-21T04:25:26;-5.40;98.90
42095;DHT22;27753;55.724;37.612;2024-02-21T04:27:52;-5.40;98.90
42095;DHT22;27753;55.724;37.612;2024-02-21T04:30:18;-5.30;99.00
42095;DHT22;27753;55.724;37.612;2024-02-21T04:32:44;-5.30;98.90
42095;DHT22;27753;55.724;37.612;2024-02-21T04:35:10;-5.30;98.80
42095;DHT22;27753;55.724;37.612;2024-02-21T04:37:36;-5.40;98.90
42095;DHT22;27753;55.724;37.612;2024-02-21T04:40:02;-5.30;99.00
42095;DHT22;27753;55.724;37.612;2024-02-21T04:42:28;-5.30;98.90
42095;DHT22;27753;55.724;37.612;2024-02-21T04:44:53;-5.30;99.00
42095;DHT22;27753;55.724;37.612;2024-02-21T04:47:19;-5.20;98.90
42095;DHT22;27753;55.724;37.612;2024-02-21T04:49:46;-5.20;98.90
42095;DHT22;27753;55.724;37.612;2024-02-21T04:52:12;-5.20;98.80
42095;DHT22;27753;55.724;37.612;2024-02-21T04:54:38;-5.30;98.80
42095;DHT22;27753;55.724;37.612;2024-02-21T04:57:04;-5.20;98.80
42095;DHT22;27753;55.724;37.612;2024-02-21T04:59:30;-5.30;98.80
42095;DHT22;27753;55.724;37.612;2024-02-21T05:01:56;-5.30;98.90
42095;DHT22;27753;55.724;37.612;2024-02-21T05:04:21;-5.20;99.00
42095;DHT22;27753;55.724;37.612;2024-02-21T05:06:47;-5.20;99.00
42095;DHT22;27753;55.724;37.612;2024-02-21T05:09:14;-5.10;98.90
42095;DHT22;27753;55.724;37.612;2024-02-21T05:11:39;-5.10;98.90
42095;DHT22;27753;55.724;37.612;2024-02-21T05:14:05;-5.10;98.80
42095;DHT22;27753;55.724;37.612;2024-02-21T05:16:32;-5.10;98.90
42095;DHT22;27753;55.724;37.612;2024-02-21T05:18:58;-5.10;98.90
42095;DHT22;27753;55.724;37.612;2024-02-21T05:21:24;-5.00;98.90
42095;DHT22;27753;55.724;37.612;2024-02-21T05:23:50;-5.00;98.90
42095;DHT22;27753;55.724;37.612;2024-02-21T05:26:25;-4.90;98.90
42095;DHT22;27753;55.724;37.612;2024-02-21T05:28:52;-4.90;98.90
42095;DHT22;27753;55.724;37.612;2024-02-21T05:31:19;-4.80;98.90
42095;DHT22;27753;55.724;37.612;2024-02-21T05:33:45;-4.80;98.80
42095;DHT22;27753;55.724;37.612;2024-02-21T05:36:11;-4.80;98.90
42095;DHT22;27753;55.724;37.612;2024-02-21T05:38:37;-4.70;98.80
42095;DHT22;27753;55.724;37.612;2024-02-21T05:41:03;-4.70;98.80
42095;DHT22;27753;55.724;37.612;2024-02-21T05:43:29;-4.70;98.80
42095;DHT22;27753;55.724;37.612;2024-02-21T05:45:55;-4.60;98.80
42095;DHT22;27753;55.724;37.612;2024-02-21T05:48:25;-4.60;98.80
42095;DHT22;27753;55.724;37.612;2024-02-21T05:50:51;-4.50;98.60
42095;DHT22;27753;55.724;37.612;2024-02-21T05:53:17;-4.50;98.70
42095;DHT22;27753;55.724;37.612;2024-02-21T05:55:43;-4.50;98.50
42095;DHT22;27753;55.724;37.612;2024-02-21T05:58:09;-4.60;98.30
42095;DHT22;27753;55.724;37.612;2024-02-21T06:00:38;-4.60;98.40
42095;DHT22;27753;55.724;37.612;2024-02-21T06:03:04;-4.60;98.40
42095;DHT22;27753;55.724;37.612;2024-02-21T06:05:30;-4.60;98.50
42095;DHT22;27753;55.724;37.612;2024-02-21T06:07:57;-4.60;98.50
42095;DHT22;27753;55.724;37.612;2024-02-21T06:10:23;-4.60;98.60
42095;DHT22;27753;55.724;37.612;2024-02-21T06:12:49;-4.40;98.80
42095;DHT22;27753;55.724;37.612;2024-02-21T06:15:14;-4.20;98.60
42095;DHT22;27753;55.724;37.612;2024-02-21T06:17:40;-4.20;98.50
42095;DHT22;27753;55.724;37.612;2024-02-21T06:20:06;-4.10;98.40
42095;DHT22;27753;55.724;37.612;2024-02-21T06:22:33;-4.00;98.50
42095;DHT22;27753;55.724;37.612;2024-02-21T06:24:59;-3.90;98.40
42095;DHT22;27753;55.724;37.612;2024-02-21T06:27:24;-3.80;98.30
42095;DHT22;27753;55.724;37.612;2024-02-21T06:29:51;-3.80;98.20
42095;DHT22;27753;55.724;37.612;2024-02-21T06:32:17;-3.90;97.90
42095;DHT22;27753;55.724;37.612;2024-02-21T06:34:42;-4.00;97.80
42095;DHT22;27753;55.724;37.612;2024-02-21T06:37:09;-3.90;98.10
42095;DHT22;27753;55.724;37.612;2024-02-21T06:39:35;-3.90;97.90
42095;DHT22;27753;55.724;37.612;2024-02-21T06:42:03;-4.00;97.90
42095;DHT22;27753;55.724;37.612;2024-02-21T06:44:29;-3.90;97.90
42095;DHT22;27753;55.724;37.612;2024-02-21T06:46:55;-4.00;97.90
42095;DHT22;27753;55.724;37.612;2024-02-21T06:49:24;-3.90;98.10
42095;DHT22;27753;55.724;37.612;2024-02-21T06:51:50;-3.90;97.70
42095;DHT22;27753;55.724;37.612;2024-02-21T06:54:16;-4.00;97.80
42095;DHT22;27753;55.724;37.612;2024-02-21T06:56:41;-3.90;98.00
42095;DHT22;27753;55.724;37.612;2024-02-21T06:59:07;-3.80;98.10
42095;DHT22;27753;55.724;37.612;2024-02-21T07:01:33;-3.80;97.30
42095;DHT22;27753;55.724;37.612;2024-02-21T07:03:59;-3.80;97.80
42095;DHT22;27753;55.724;37.612;2024-02-21T07:06:25;-3.80;97.40
42095;DHT22;27753;55.724;37.612;2024-02-21T07:08:51;-3.90;97.60
42095;DHT22;27753;55.724;37.612;2024-02-21T07:11:17;-4.00;97.70
42095;DHT22;27753;55.724;37.612;2024-02-21T07:13:43;-4.00;97.80
42095;DHT22;27753;55.724;37.612;2024-02-21T07:16:08;-4.00;97.60
42095;DHT22;27753;55.724;37.612;2024-02-21T07:18:34;-4.00;97.70
42095;DHT22;27753;55.724;37.612;2024-02-21T07:21:00;-3.90;97.90
42095;DHT22;27753;55.724;37.612;2024-02-21T07:23:26;-3.80;98.00
42095;DHT22;27753;55.724;37.612;2024-02-21T07:25:52;-3.60;98.10
42095;DHT22;27753;55.724;37.612;2024-02-21T07:28:20;-3.40;98.00
42095;DHT22;27753;55.724;37.612;2024-02-21T07:30:46;-3.30;97.70
42095;DHT22;27753;55.724;37.612;2024-02-21T07:33:12;-3.20;97.60
42095;DHT22;27753;55.724;37.612;2024-02-21T07:35:41;-3.20;97.50
42095;DHT22;27753;55.724;37.612;2024-02-21T07:38:12;-3.10;97.50
42095;DHT22;27753;55.724;37.612;2024-02-21T07:40:43;-2.90;97.40
42095;DHT22;27753;55.724;37.612;2024-02-21T07:43:09;-2.70;96.90
42095;DHT22;27753;55.724;37.612;2024-02-21T07:45:35;-2.90;96.30
42095;DHT22;27753;55.724;37.612;2024-02-21T07:48:01;-2.80;96.80
42095;DHT22;27753;55.724;37.612;2024-02-21T07:50:27;-2.60;96.70
42095;DHT22;27753;55.724;37.612;2024-02-21T07:52:53;-2.50;96.30
42095;DHT22;27753;55.724;37.612;2024-02-21T07:55:19;-2.50;96.10
42095;DHT22;27753;55.724;37.612;2024-02-21T07:57:45;-2.50;95.40
42095;DHT22;27753;55.724;37.612;2024-02-21T08:00:11;-2.50;95.70
42095;DHT22;27753;55.724;37.612;2024-02-21T08:02:42;-2.60;95.50
42095;DHT22;27753;55.724;37.612;2024-02-21T08:05:09;-2.70;95.70
42095;DHT22;27753;55.724;37.612;2024-02-21T08:07:37;-2.50;95.90
42095;DHT22;27753;55.724;37.612;2024-02-21T08:10:04;-2.40;95.40
42095;DHT22;27753;55.724;37.612;2024-02-21T08:12:29;-2.40;95.20
42095;DHT22;27753;55.724;37.612;2024-02-21T08:14:55;-2.60;94.80
42095;DHT22;27753;55.724;37.612;2024-02-21T08:17:21;-2.70;95.20
42095;DHT22;27753;55.724;37.612;2024-02-21T08:19:47;-2.60;95.80
42095;DHT22;27753;55.724;37.612;2024-02-21T08:22:14;-2.20;96.00
42095;DHT22;27753;55.724;37.612;2024-02-21T08:24:40;-2.10;94.80
42095;DHT22;27753;55.724;37.612;2024-02-21T08:27:06;-2.20;94.90
42095;DHT22;27753;55.724;37.612;2024-02-21T08:29:32;-1.90;95.10
42095;DHT22;27753;55.724;37.612;2024-02-21T08:31:57;-1.60;95.30
42095;DHT22;27753;55.724;37.612;2024-02-21T08:34:23;-1.20;95.10
42095;DHT22;27753;55.724;37.612;2024-02-21T08:36:49;-0.50;95.30
42095;DHT22;27753;55.724;37.612;2024-02-21T08:39:15;0.30;93.90
42095;DHT22;27753;55.724;37.612;2024-02-21T08:41:43;0.40;92.40
42095;DHT22;27753;55.724;37.612;2024-02-21T08:44:09;1.00;92.50
42095;DHT22;27753;55.724;37.612;2024-02-21T08:46:35;1.20;91.10
42095;DHT22;27753;55.724;37.612;2024-02-21T08:49:03;1.30;90.80
42095;DHT22;27753;55.724;37.612;2024-02-21T08:51:29;1.20;90.20
42095;DHT22;27753;55.724;37.612;2024-02-21T08:53:55;1.00;89.60
42095;DHT22;27753;55.724;37.612;2024-02-21T08:56:21;0.50;90.00
42095;DHT22;27753;55.724;37.612;2024-02-21T08:58:46;0.20;89.60
42095;DHT22;27753;55.724;37.612;2024-02-21T09:01:12;-0.20;90.20
42095;DHT22;27753;55.724;37.612;2024-02-21T09:03:39;-0.50;90.60
42095;DHT22;27753;55.724;37.612;2024-02-21T09:06:09;-0.60;90.90
42095;DHT22;27753;55.724;37.612;2024-02-21T09:08:35;-0.70;91.00
42095;DHT22;27753;55.724;37.612;2024-02-21T09:11:01;-0.60;91.30
42095;DHT22;27753;55.724;37.612;2024-02-21T09:13:27;-0.40;91.40
42095;DHT22;27753;55.724;37.612;2024-02-21T09:15:53;-0.30;91.10
42095;DHT22;27753;55.724;37.612;2024-02-21T09:18:19;-0.20;91.00
42095;DHT22;27753;55.724;37.612;2024-02-21T09:20:45;0.00;90.90
42095;DHT22;27753;55.724;37.612;2024-02-21T09:23:12;0.20;90.60
42095;DHT22;27753;55.724;37.612;2024-02-21T09:25:38;0.60;90.90
42095;DHT22;27753;55.724;37.612;2024-02-21T09:28:04;1.10;90.40
42095;DHT22;27753;55.724;37.612;2024-02-21T09:30:32;1.20;89.30
42095;DHT22;27753;55.724;37.612;2024-02-21T09:32:58;1.80;90.30
42095;DHT22;27753;55.724;37.612;2024-02-21T09:35:25;2.30;87.90
42095;DHT22;27753;55.724;37.612;2024-02-21T09:37:53;1.80;83.20
42095;DHT22;27753;55.724;37.612;2024-02-21T09:40:19;1.10;85.70
42095;DHT22;27753;55.724;37.612;2024-02-21T09:42:47;0.70;86.30
42095;DHT22;27753;55.724;37.612;2024-02-21T09:45:15;0.70;86.80
42095;DHT22;27753;55.724;37.612;2024-02-21T09:50:36;0.30;87.60
42095;DHT22;27753;55.724;37.612;2024-02-21T09:53:06;0.30;88.10
42095;DHT22;27753;55.724;37.612;2024-02-21T09:55:38;0.30;88.60
42095;DHT22;27753;55.724;37.612;2024-02-21T09:58:05;0.30;88.10
42095;DHT22;27753;55.724;37.612;2024-02-21T10:00:32;-0.10;87.60
42095;DHT22;27753;55.724;37.612;2024-02-21T10:02:59;-0.40;89.00
42095;DHT22;27753;55.724;37.612;2024-02-21T10:05:25;-0.30;90.00
42095;DHT22;27753;55.724;37.612;2024-02-21T10:07:51;-0.20;89.40
42095;DHT22;27753;55.724;37.612;2024-02-21T10:10:18;-0.10;90.00
42095;DHT22;27753;55.724;37.612;2024-02-21T10:12:51;0.00;89.80
42095;DHT22;27753;55.724;37.612;2024-02-21T10:15:20;0.20;89.60
42095;DHT22;27753;55.724;37.612;2024-02-21T10:17:48;0.20;89.60
42095;DHT22;27753;55.724;37.612;2024-02-21T10:20:17;0.20;89.50
42095;DHT22;27753;55.724;37.612;2024-02-21T10:22:42;0.00;88.90
42095;DHT22;27753;55.724;37.612;2024-02-21T10:25:09;-0.10;89.30
42095;DHT22;27753;55.724;37.612;2024-02-21T10:27:36;-0.20;90.00
42095;DHT22;27753;55.724;37.612;2024-02-21T10:30:04;-0.50;89.30
42095;DHT22;27753;55.724;37.612;2024-02-21T10:32:30;-0.80;90.00
42095;DHT22;27753;55.724;37.612;2024-02-21T10:35:05;-0.90;90.50
42095;DHT22;27753;55.724;37.612;2024-02-21T10:37:31;-1.00;90.70
42095;DHT22;27753;55.724;37.612;2024-02-21T10:40:00;-1.20;90.70
42095;DHT22;27753;55.724;37.612;2024-02-21T10:42:29;-1.00;91.10
42095;DHT22;27753;55.724;37.612;2024-02-21T10:45:01;-0.90;90.80
42095;DHT22;27753;55.724;37.612;2024-02-21T10:47:32;-0.90;91.00
42095;DHT22;27753;55.724;37.612;2024-02-21T10:50:03;-0.80;91.20
42095;DHT22;27753;55.724;37.612;2024-02-21T10:55:12;-0.50;91.20
42095;DHT22;27753;55.724;37.612;2024-02-21T10:57:41;-0.40;90.90
42095;DHT22;27753;55.724;37.612;2024-02-21T11:00:09;-0.50;90.80
42095;DHT22;27753;55.724;37.612;2024-02-21T11:02:38;-0.60;90.80
42095;DHT22;27753;55.724;37.612;2024-02-21T11:05:05;-0.50;91.00
42095;DHT22;27753;55.724;37.612;2024-02-21T11:07:36;-0.40;91.10
42095;DHT22;27753;55.724;37.612;2024-02-21T11:10:03;-0.40;90.80
42095;DHT22;27753;55.724;37.612;2024-02-21T11:12:32;-0.40;90.70
42095;DHT22;27753;55.724;37.612;2024-02-21T11:15:08;-0.60;90.70
42095;DHT22;27753;55.724;37.612;2024-02-21T11:17:34;-0.80;91.00
42095;DHT22;27753;55.724;37.612;2024-02-21T11:20:11;-0.70;91.10
42095;DHT22;27753;55.724;37.612;2024-02-21T11:22:42;-0.80;90.90
42095;DHT22;27753;55.724;37.612;2024-02-21T11:25:08;-1.00;90.90
42095;DHT22;27753;55.724;37.612;2024-02-21T11:27:37;-1.00;91.10
42095;DHT22;27753;55.724;37.612;2024-02-21T11:30:05;-1.20;91.20
42095;DHT22;27753;55.724;37.612;2024-02-21T11:32:31;-1.20;91.40
42095;DHT22;27753;55.724;37.612;2024-02-21T11:37:34;-1.20;91.60
42095;DHT22;27753;55.724;37.612;2024-02-21T11:40:02;-1.20;91.70
42095;DHT22;27753;55.724;37.612;2024-02-21T11:42:30;-1.00;91.90
42095;DHT22;27753;55.724;37.612;2024-02-21T11:44:57;-0.90;91.80
42095;DHT22;27753;55.724;37.612;2024-02-21T11:47:23;-1.10;91.00
42095;DHT22;27753;55.724;37.612;2024-02-21T11:49:50;-1.40;91.40
42095;DHT22;27753;55.724;37.612;2024-02-21T11:52:21;-1.50;91.80
42095;DHT22;27753;55.724;37.612;2024-02-21T11:54:51;-1.70;91.90
42095;DHT22;27753;55.724;37.612;2024-02-21T11:57:17;-1.90;92.30
42095;DHT22;27753;55.724;37.612;2024-02-21T11:59:45;-1.90;92.50
42095;DHT22;27753;55.724;37.612;2024-02-21T12:02:12;-1.90;92.60
42095;DHT22;27753;55.724;37.612;2024-02-21T12:04:38;-1.90;92.60
42095;DHT22;27753;55.724;37.612;2024-02-21T12:07:05;-1.90;92.40
42095;DHT22;27753;55.724;37.612;2024-02-21T12:09:31;-2.20;92.80
42095;DHT22;27753;55.724;37.612;2024-02-21T12:12:01;-2.30;93.10
42095;DHT22;27753;55.724;37.612;2024-02-21T12:14:29;-2.20;93.40
42095;DHT22;27753;55.724;37.612;2024-02-21T12:16:56;-2.10;93.40
42095;DHT22;27753;55.724;37.612;2024-02-21T12:19:22;-2.00;93.30
42095;DHT22;27753;55.724;37.612;2024-02-21T12:21:49;-1.90;93.20
42095;DHT22;27753;55.724;37.612;2024-02-21T12:24:27;-2.10;93.30
42095;DHT22;27753;55.724;37.612;2024-02-21T12:26:54;-2.10;93.50
42095;DHT22;27753;55.724;37.612;2024-02-21T12:29:22;-2.10;93.60
42095;DHT22;27753;55.724;37.612;2024-02-21T12:31:48;-2.10;94.00
42095;DHT22;27753;55.724;37.612;2024-02-21T12:34:15;-2.00;93.80
42095;DHT22;27753;55.724;37.612;2024-02-21T12:36:42;-1.90;93.70
42095;DHT22;27753;55.724;37.612;2024-02-21T12:39:09;-1.90;93.60
42095;DHT22;27753;55.724;37.612;2024-02-21T12:41:36;-1.90;93.50
42095;DHT22;27753;55.724;37.612;2024-02-21T12:44:05;-2.20;93.30
42095;DHT22;27753;55.724;37.612;2024-02-21T12:46:33;-2.40;93.70
42095;DHT22;27753;55.724;37.612;2024-02-21T12:49:00;-2.30;94.00
42095;DHT22;27753;55.724;37.612;2024-02-21T12:51:26;-2.30;94.10
42095;DHT22;27753;55.724;37.612;2024-02-21T12:53:51;-2.20;94.10
42095;DHT22;27753;55.724;37.612;2024-02-21T12:56:17;-2.30;94.00
42095;DHT22;27753;55.724;37.612;2024-02-21T12:58:43;-2.20;94.10
42095;DHT22;27753;55.724;37.612;2024-02-21T13:01:10;-2.30;94.20
42095;DHT22;27753;55.724;37.612;2024-02-21T13:03:36;-2.20;94.20
42095;DHT22;27753;55.724;37.612;2024-02-21T13:06:02;-2.10;94.20
42095;DHT22;27753;55.724;37.612;2024-02-21T13:08:31;-2.00;94.10
42095;DHT22;27753;55.724;37.612;2024-02-21T13:10:57;-2.10;94.00
42095;DHT22;27753;55.724;37.612;2024-02-21T13:13:23;-2.20;94.10
42095;DHT22;27753;55.724;37.612;2024-02-21T13:15:49;-2.30;94.00
42095;DHT22;27753;55.724;37.612;2024-02-21T13:18:14;-2.30;94.20
42095;DHT22;27753;55.724;37.612;2024-02-21T13:20:40;-2.40;94.20
42095;DHT22;27753;55.724;37.612;2024-02-21T13:23:06;-2.30;94.40
42095;DHT22;27753;55.724;37.612;2024-02-21T13:25:32;-2.30;94.30
42095;DHT22;27753;55.724;37.612;2024-02-21T13:27:57;-2.30;94.30
42095;DHT22;27753;55.724;37.612;2024-02-21T13:30:24;-2.30;94.50
42095;DHT22;27753;55.724;37.612;2024-02-21T13:32:51;-2.30;94.30
42095;DHT22;27753;55.724;37.612;2024-02-21T13:35:17;-2.40;94.40
42095;DHT22;27753;55.724;37.612;2024-02-21T13:37:43;-2.40;94.70
42095;DHT22;27753;55.724;37.612;2024-02-21T13:40:09;-2.50;94.60
42095;DHT22;27753;55.724;37.612;2024-02-21T13:42:36;-2.50;94.60
42095;DHT22;27753;55.724;37.612;2024-02-21T13:45:03;-2.50;94.80
42095;DHT22;27753;55.724;37.612;2024-02-21T13:47:31;-2.50;94.90
42095;DHT22;27753;55.724;37.612;2024-02-21T13:49:57;-2.50;94.80
42095;DHT22;27753;55.724;37.612;2024-02-21T13:52:23;-2.50;94.90
42095;DHT22;27753;55.724;37.612;2024-02-21T13:54:52;-2.40;94.90
42095;DHT22;27753;55.724;37.612;2024-02-21T13:57:18;-2.30;94.70
42095;DHT22;27753;55.724;37.612;2024-02-21T13:59:46;-2.40;94.80
42095;DHT22;27753;55.724;37.612;2024-02-21T14:02:12;-2.40;94.90
42095;DHT22;27753;55.724;37.612;2024-02-21T14:04:38;-2.50;94.90
42095;DHT22;27753;55.724;37.612;2024-02-21T14:07:04;-2.60;95.00
42095;DHT22;27753;55.724;37.612;2024-02-21T14:09:30;-2.60;95.30
42095;DHT22;27753;55.724;37.612;2024-02-21T14:11:56;-2.50;95.30
42095;DHT22;27753;55.724;37.612;2024-02-21T14:14:22;-2.50;95.30
42095;DHT22;27753;55.724;37.612;2024-02-21T14:16:48;-2.40;95.30
42095;DHT22;27753;55.724;37.612;2024-02-21T14:19:16;-2.50;95.20
42095;DHT22;27753;55.724;37.612;2024-02-21T14:21:44;-2.70;95.20
42095;DHT22;27753;55.724;37.612;2024-02-21T14:24:10;-2.60;95.40
42095;DHT22;27753;55.724;37.612;2024-02-21T14:26:37;-2.60;95.50
42095;DHT22;27753;55.724;37.612;2024-02-21T14:29:03;-2.60;95.50
42095;DHT22;27753;55.724;37.612;2024-02-21T14:31:32;-2.60;95.50
42095;DHT22;27753;55.724;37.612;2024-02-21T14:33:58;-2.70;95.10
42095;DHT22;27753;55.724;37.612;2024-02-21T14:36:24;-2.80;95.30
42095;DHT22;27753;55.724;37.612;2024-02-21T14:38:50;-2.90;95.50
42095;DHT22;27753;55.724;37.612;2024-02-21T14:41:18;-2.80;95.70
42095;DHT22;27753;55.724;37.612;2024-02-21T14:43:44;-2.70;95.70
42095;DHT22;27753;55.724;37.612;2024-02-21T14:46:10;-2.70;95.60
42095;DHT22;27753;55.724;37.612;2024-02-21T14:48:38;-2.70;95.60
42095;DHT22;27753;55.724;37.612;2024-02-21T14:51:04;-2.70;95.60
42095;DHT22;27753;55.724;37.612;2024-02-21T14:53:30;-2.80;95.70
42095;DHT22;27753;55.724;37.612;2024-02-21T14:55:58;-2.80;95.70
42095;DHT22;27753;55.724;37.612;2024-02-21T14:58:24;-2.70;95.80
42095;DHT22;27753;55.724;37.612;2024-02-21T15:00:50;-2.80;95.70
42095;DHT22;27753;55.724;37.612;2024-02-21T15:03:16;-2.80;95.90
42095;DHT22;27753;55.724;37.612;2024-02-21T15:05:46;-2.80;96.10
42095;DHT22;27753;55.724;37.612;2024-02-21T15:08:12;-2.80;95.80
42095;DHT22;27753;55.724;37.612;2024-02-21T15:10:42;-2.90;95.70
42095;DHT22;27753;55.724;37.612;2024-02-21T15:13:08;-3.00;95.90
42095;DHT22;27753;55.724;37.612;2024-02-21T15:15:34;-3.10;96.00
42095;DHT22;27753;55.724;37.612;2024-02-21T15:17:59;-3.00;96.10
42095;DHT22;27753;55.724;37.612;2024-02-21T15:20:25;-3.00;96.10
42095;DHT22;27753;55.724;37.612;2024-02-21T15:22:53;-3.00;96.10